createdAt,value
2023-04-02T00:02:57.448Z,92.16
2023-04-02T00:06:02.595Z,91.63
2023-04-02T00:09:14.020Z,91.55
2023-04-02T00:12:19.504Z,91.21
2023-04-02T00:15:22.035Z,91.06
2023-04-02T00:18:25.776Z,91.06
2023-04-02T00:21:31.636Z,90.89
2023-04-02T00:24:34.492Z,90.74
2023-04-02T00:27:37.026Z,90.78
2023-04-02T00:30:56.382Z,90.65
2023-04-02T00:34:01.118Z,90.70
2023-04-02T00:37:04.661Z,90.86
2023-04-02T00:40:16.805Z,90.84
2023-04-02T00:43:21.010Z,90.53
2023-04-02T00:46:30.238Z,90.45
2023-04-02T00:49:38.444Z,90.45
2023-04-02T00:52:42.370Z,90.25
2023-04-02T00:55:45.440Z,89.88
2023-04-02T00:58:52.398Z,89.78
2023-04-02T01:02:26.484Z,89.37
2023-04-02T01:05:34.498Z,88.91
2023-04-02T01:08:55.780Z,88.34
2023-04-02T01:12:26.603Z,88.33
2023-04-02T01:15:42.279Z,88.19
2023-04-02T01:18:50.953Z,88.22
2023-04-02T01:21:55.376Z,88.15
2023-04-02T01:24:58.305Z,88.23
2023-04-02T01:28:19.533Z,88.38
2023-04-02T01:31:22.758Z,88.34
2023-04-02T01:34:27.360Z,88.33
2023-04-02T01:38:04.933Z,87.83
2023-04-02T01:41:21.996Z,87.81
2023-04-02T01:44:34.338Z,87.89
2023-04-02T01:47:37.899Z,88.00
2023-04-02T01:50:41.698Z,87.55
2023-04-02T01:53:44.703Z,87.15
2023-04-02T01:56:50.048Z,86.12
2023-04-02T01:59:53.199Z,85.64
2023-04-02T02:02:56.209Z,84.86
2023-04-02T02:05:59.776Z,84.75
2023-04-02T02:09:04.590Z,84.51
2023-04-02T02:12:09.668Z,84.16
2023-04-02T02:15:17.500Z,83.84
2023-04-02T02:18:23.527Z,83.40
2023-04-02T02:21:57.030Z,83.34
2023-04-02T02:25:02.109Z,83.06
2023-04-02T02:28:16.042Z,82.99
2023-04-02T02:31:22.857Z,83.16
2023-04-02T02:34:41.661Z,82.87
2023-04-02T02:37:47.702Z,82.91
2023-04-02T02:40:54.331Z,83.12
2023-04-02T02:44:00.528Z,83.51
2023-04-02T02:47:14.147Z,83.59
2023-04-02T02:50:26.117Z,83.75
2023-04-02T02:53:29.000Z,83.85
2023-04-02T02:56:32.913Z,83.47
2023-04-02T02:59:35.905Z,83.63
2023-04-02T03:02:41.973Z,83.71
2023-04-02T03:05:50.420Z,84.06
2023-04-02T03:09:13.542Z,84.15
2023-04-02T03:12:34.871Z,84.64
2023-04-02T03:16:11.968Z,84.86
2023-04-02T03:19:36.758Z,85.19
2023-04-02T03:23:06.334Z,85.27
2023-04-02T03:26:23.194Z,85.50
2023-04-02T03:29:28.252Z,85.77
2023-04-02T03:32:34.787Z,85.99
2023-04-02T03:35:41.834Z,85.96
2023-04-02T03:39:09.203Z,86.35
2023-04-02T03:42:22.532Z,86.41
2023-04-02T03:45:27.538Z,86.90
2023-04-02T03:49:07.892Z,87.58
2023-04-02T03:52:13.480Z,88.05
2023-04-02T03:55:22.848Z,88.62
2023-04-02T03:58:32.436Z,88.92
2023-04-02T04:01:39.760Z,89.10
2023-04-02T04:04:44.735Z,89.19
2023-04-02T04:07:48.431Z,89.43
2023-04-02T04:10:53.343Z,89.62
2023-04-02T04:14:01.038Z,89.44
2023-04-02T04:17:09.620Z,89.60
2023-04-02T04:20:22.259Z,89.93
2023-04-02T04:23:30.122Z,90.21
2023-04-02T04:26:49.606Z,90.31
2023-04-02T04:30:03.941Z,90.15
2023-04-02T04:33:15.376Z,90.14
2023-04-02T04:36:30.918Z,90.19
2023-04-02T04:39:34.907Z,90.31
2023-04-02T04:42:40.830Z,90.30
2023-04-02T04:45:55.825Z,90.66
2023-04-02T04:49:18.605Z,90.98
2023-04-02T04:52:25.185Z,91.09
2023-04-02T04:55:39.426Z,91.21
2023-04-02T04:58:47.842Z,91.09
2023-04-02T05:01:59.604Z,90.95
2023-04-02T05:05:03.833Z,90.79
2023-04-02T05:08:20.088Z,90.80
2023-04-02T05:11:37.883Z,90.88
2023-04-02T05:14:48.443Z,90.05
2023-04-02T05:17:57.052Z,89.77
2023-04-02T05:21:06.932Z,89.88
2023-04-02T05:24:31.938Z,89.49
2023-04-02T05:27:46.944Z,89.30
2023-04-02T05:30:53.063Z,89.46
2023-04-02T05:33:56.796Z,88.82
2023-04-02T05:36:59.538Z,88.32
2023-04-02T05:40:14.674Z,88.21
2023-04-02T05:43:20.877Z,87.67
2023-04-02T05:46:28.427Z,87.10
2023-04-02T05:49:46.229Z,87.31
2023-04-02T05:52:58.896Z,87.18
2023-04-02T05:56:19.463Z,87.37
2023-04-02T05:59:29.752Z,87.23
2023-04-02T06:02:42.687Z,87.33
2023-04-02T06:05:46.800Z,87.76
2023-04-02T06:08:55.727Z,87.65
2023-04-02T06:12:16.199Z,86.78
2023-04-02T06:15:21.518Z,87.44
2023-04-02T06:18:30.723Z,88.04
2023-04-02T06:21:33.653Z,89.07
2023-04-02T06:24:37.682Z,89.69
2023-04-02T06:27:41.482Z,90.26
2023-04-02T06:30:44.953Z,89.75
2023-04-02T06:33:52.403Z,89.54
2023-04-02T06:36:58.649Z,88.48
2023-04-02T06:40:03.652Z,87.60
2023-04-02T06:43:26.249Z,86.53
2023-04-02T06:46:52.581Z,86.79
2023-04-02T06:50:04.023Z,87.28
2023-04-02T06:53:11.785Z,87.28
2023-04-02T06:56:32.958Z,87.66
2023-04-02T06:59:36.378Z,88.27
2023-04-02T07:02:40.046Z,88.68
2023-04-02T07:05:43.304Z,88.30
2023-04-02T07:08:46.852Z,88.73
2023-04-02T07:11:50.846Z,89.12
2023-04-02T07:14:54.771Z,89.72
2023-04-02T07:17:59.392Z,89.83
2023-04-02T07:21:02.910Z,90.31
2023-04-02T07:24:06.997Z,90.56
2023-04-02T07:27:11.276Z,91.04
2023-04-02T07:30:13.963Z,92.12
2023-04-02T07:33:18.967Z,92.72
2023-04-02T07:36:23.351Z,94.10
2023-04-02T07:39:26.343Z,93.65
2023-04-02T07:42:29.036Z,93.82
2023-04-02T07:45:31.948Z,93.17
2023-04-02T07:48:34.512Z,93.66
2023-04-02T07:51:37.662Z,94.44
2023-04-02T07:54:40.372Z,96.64
2023-04-02T07:57:54.491Z,98.56
2023-04-02T08:00:57.535Z,99.38
2023-04-02T08:04:00.380Z,99.22
2023-04-02T08:07:03.088Z,99.31
2023-04-02T08:10:08.129Z,98.70
2023-04-02T08:13:10.720Z,98.58
2023-04-02T08:16:13.783Z,97.03
2023-04-02T08:19:16.909Z,96.89
2023-04-02T08:22:19.729Z,95.59
2023-04-02T08:25:22.298Z,94.63
2023-04-02T08:28:25.120Z,93.46
2023-04-02T08:31:27.722Z,91.25
2023-04-02T08:34:30.819Z,91.08
2023-04-02T08:37:33.348Z,90.57
2023-04-02T08:40:39.014Z,89.63
2023-04-02T08:43:52.653Z,90.80
2023-04-02T08:47:03.346Z,90.45
2023-04-02T08:50:24.672Z,88.58
2023-04-02T08:53:32.945Z,87.52
2023-04-02T08:57:02.494Z,89.94
2023-04-02T09:00:10.244Z,91.06
2023-04-02T09:03:19.813Z,92.56
2023-04-02T09:06:23.200Z,92.30
2023-04-02T09:09:27.226Z,92.27
2023-04-02T09:12:31.852Z,90.60
2023-04-02T09:15:36.653Z,91.70
2023-04-02T09:18:40.709Z,93.67
2023-04-02T09:22:00.051Z,99.63
2023-04-02T09:25:04.968Z,100.00
2023-04-02T09:28:10.680Z,100.00
2023-04-02T09:31:21.232Z,100.00
2023-04-02T09:34:32.439Z,100.00
2023-04-02T09:37:35.427Z,100.00
2023-04-02T09:40:46.862Z,99.77
2023-04-02T09:43:49.611Z,99.37
2023-04-02T09:46:59.954Z,98.46
2023-04-02T09:50:32.483Z,97.98
2023-04-02T09:53:43.436Z,95.35
2023-04-02T09:57:01.578Z,94.99
2023-04-02T10:00:30.545Z,93.20
2023-04-02T10:03:34.460Z,90.95
2023-04-02T10:06:37.489Z,88.75
2023-04-02T10:09:40.423Z,87.23
2023-04-02T10:12:45.694Z,87.63
2023-04-02T10:16:00.421Z,87.95
2023-04-02T10:19:07.353Z,87.76
2023-04-02T10:22:16.571Z,90.88
2023-04-02T10:25:21.750Z,91.11
2023-04-02T10:28:33.504Z,91.20
2023-04-02T10:32:17.823Z,93.06
2023-04-02T10:35:56.835Z,96.79
2023-04-02T10:39:08.560Z,97.76
2023-04-02T10:42:26.828Z,98.95
2023-04-02T10:45:38.598Z,92.00
2023-04-02T10:49:00.482Z,85.78
2023-04-02T10:52:09.888Z,79.16
2023-04-02T10:55:22.425Z,76.06
2023-04-02T10:58:27.552Z,78.60
2023-04-02T11:01:30.740Z,78.89
2023-04-02T11:04:37.873Z,80.21
2023-04-02T11:07:49.986Z,79.95
2023-04-02T11:11:08.077Z,81.44
2023-04-02T11:14:24.341Z,83.43
2023-04-02T11:17:26.968Z,84.09
2023-04-02T11:20:45.934Z,82.42
2023-04-02T11:24:00.433Z,80.77
2023-04-02T11:27:12.453Z,79.76
2023-04-02T11:30:26.312Z,81.13
2023-04-02T11:33:38.092Z,85.64
2023-04-02T11:36:51.019Z,89.09
2023-04-02T11:39:56.790Z,89.94
2023-04-02T11:43:34.478Z,92.68
2023-04-02T11:46:41.506Z,94.12
2023-04-02T11:50:06.003Z,97.71
2023-04-02T11:53:12.079Z,98.54
2023-04-02T11:56:34.901Z,96.85
2023-04-02T12:00:08.752Z,96.25
2023-04-02T12:03:49.313Z,97.56
2023-04-02T12:07:04.333Z,100.00
2023-04-02T12:10:20.743Z,100.00
2023-04-02T12:13:41.961Z,100.00
2023-04-02T12:16:44.681Z,100.00
2023-04-02T12:19:50.379Z,100.00
2023-04-02T12:22:56.190Z,100.00
2023-04-02T12:26:01.338Z,100.00
2023-04-02T12:29:34.026Z,100.00
2023-04-02T12:32:36.866Z,100.00
2023-04-02T12:35:41.331Z,100.00
2023-04-02T12:38:57.336Z,100.00
2023-04-02T12:42:00.057Z,100.00
2023-04-02T12:45:05.294Z,100.00
2023-04-02T12:48:10.730Z,100.00
2023-04-02T12:51:13.637Z,100.00
2023-04-02T12:54:23.326Z,100.00
2023-04-02T12:57:26.177Z,100.00
2023-04-02T13:00:31.665Z,100.00
2023-04-02T13:03:34.623Z,100.00
2023-04-02T13:06:38.652Z,100.00
2023-04-02T13:09:50.466Z,100.00
2023-04-02T13:13:03.433Z,100.00
2023-04-02T13:16:15.532Z,100.00
2023-04-02T13:19:17.995Z,100.00
2023-04-02T13:22:31.790Z,100.00
2023-04-02T13:25:36.885Z,100.00
2023-04-02T13:28:39.794Z,100.00
2023-04-02T13:31:42.750Z,100.00
2023-04-02T13:34:45.630Z,100.00
2023-04-02T13:37:49.013Z,100.00
2023-04-02T13:40:51.847Z,100.00
2023-04-02T13:43:55.213Z,100.00
2023-04-02T13:46:58.521Z,100.00
2023-04-02T13:50:01.507Z,100.00
2023-04-02T13:53:10.274Z,100.00
2023-04-02T13:56:13.184Z,100.00
2023-04-02T13:59:16.319Z,100.00
2023-04-02T14:02:23.134Z,100.00
2023-04-02T14:05:41.172Z,100.00
2023-04-02T14:09:04.241Z,100.00
2023-04-02T14:12:28.736Z,100.00
2023-04-02T14:15:40.517Z,100.00
2023-04-02T14:19:02.143Z,100.00
2023-04-02T14:22:10.848Z,100.00
2023-04-02T14:25:32.030Z,100.00
2023-04-02T14:29:09.576Z,100.00
2023-04-02T14:32:19.254Z,100.00
2023-04-02T14:35:29.472Z,93.04
2023-04-02T14:38:40.539Z,89.16
2023-04-02T14:41:53.252Z,91.47
2023-04-02T14:45:06.518Z,87.52
2023-04-02T14:48:21.491Z,82.59
2023-04-02T14:51:41.694Z,81.09
2023-04-02T14:55:03.329Z,81.31
2023-04-02T14:58:13.388Z,81.46
2023-04-02T15:01:26.332Z,82.93
2023-04-02T15:04:41.783Z,82.51
2023-04-02T15:08:04.214Z,83.33
2023-04-02T15:11:17.579Z,83.50
2023-04-02T15:14:24.179Z,78.49
2023-04-02T15:17:27.230Z,79.38
2023-04-02T15:20:40.381Z,79.47
2023-04-02T15:23:56.062Z,77.16
2023-04-02T15:27:25.058Z,77.82
2023-04-02T15:30:35.088Z,77.17
2023-04-02T15:33:37.822Z,77.88
2023-04-02T15:36:44.095Z,75.24
2023-04-02T15:40:18.549Z,76.19
2023-04-02T15:43:28.282Z,74.96
2023-04-02T15:46:57.089Z,74.99
2023-04-02T15:50:17.139Z,76.38
2023-04-02T15:54:00.173Z,76.65
2023-04-02T15:57:16.980Z,75.36
2023-04-02T16:00:30.876Z,72.61
2023-04-02T16:03:44.828Z,69.67
2023-04-02T16:07:00.597Z,69.43
2023-04-02T16:10:40.211Z,71.06
2023-04-02T16:13:45.097Z,71.54
2023-04-02T16:16:49.319Z,71.11
2023-04-02T16:19:56.533Z,71.90
2023-04-02T16:23:02.693Z,73.40
2023-04-02T16:26:28.113Z,72.55
2023-04-02T16:29:53.316Z,73.20
2023-04-02T16:33:12.373Z,73.94
2023-04-02T16:36:44.467Z,75.04
2023-04-02T16:40:16.946Z,73.57
2023-04-02T16:43:54.041Z,74.78
2023-04-02T16:47:22.321Z,76.51
2023-04-02T16:50:34.493Z,76.25
2023-04-02T16:54:01.080Z,76.32
2023-04-02T16:57:32.987Z,75.51
2023-04-02T17:00:51.977Z,76.30
2023-04-02T17:07:21.300Z,76.60
2023-04-02T17:10:31.510Z,75.49
2023-04-02T17:13:41.489Z,76.83
2023-04-02T17:16:50.886Z,76.33
2023-04-02T17:19:57.093Z,76.18
2023-04-02T17:23:02.758Z,75.08
2023-04-02T17:26:08.444Z,76.15
2023-04-02T17:29:16.647Z,75.96
2023-04-02T17:32:36.960Z,75.81
2023-04-02T17:36:04.583Z,76.01
2023-04-02T17:39:35.596Z,75.19
2023-04-02T17:42:56.076Z,76.31
2023-04-02T17:46:37.626Z,76.02
2023-04-02T17:50:03.797Z,75.95
2023-04-02T17:53:09.555Z,77.64
2023-04-02T17:56:30.920Z,77.08
2023-04-02T17:59:40.437Z,76.18
2023-04-02T18:03:07.177Z,76.09
2023-04-02T18:06:25.492Z,76.89
2023-04-02T18:09:49.900Z,76.87
2023-04-02T18:13:15.894Z,75.39
2023-04-02T18:16:38.358Z,75.65
2023-04-02T18:19:53.221Z,76.30
2023-04-02T18:23:13.129Z,75.45
2023-04-02T18:26:41.245Z,75.87
2023-04-02T18:30:00.341Z,75.37
2023-04-02T18:33:17.110Z,75.35
2023-04-02T18:36:39.310Z,75.63
2023-04-02T18:40:00.910Z,76.67
2023-04-02T18:43:26.413Z,76.68
2023-04-02T18:46:47.907Z,76.15
2023-04-02T18:50:12.509Z,75.85
2023-04-02T18:53:24.073Z,76.07
2023-04-02T18:56:27.001Z,76.42
2023-04-02T18:59:41.463Z,75.60
2023-04-02T19:02:54.651Z,76.01
2023-04-02T19:06:03.483Z,75.42
2023-04-02T19:09:20.648Z,74.59
2023-04-02T19:12:24.268Z,75.68
2023-04-02T19:15:41.044Z,74.20
2023-04-02T19:19:03.165Z,74.91
2023-04-02T19:22:29.695Z,74.31
2023-04-02T19:25:51.911Z,75.78
2023-04-02T19:29:04.041Z,76.47
2023-04-02T19:32:11.503Z,75.56
2023-04-02T19:38:49.673Z,73.38
2023-04-02T19:41:54.272Z,73.08
2023-04-02T19:44:57.685Z,72.73
2023-04-02T19:48:04.069Z,73.98
2023-04-02T19:51:06.953Z,73.77
2023-04-02T19:54:10.786Z,74.02
2023-04-02T19:57:16.018Z,74.35
2023-04-02T20:00:19.413Z,73.47
2023-04-02T20:03:22.844Z,74.01
2023-04-02T20:06:25.763Z,74.01
2023-04-02T20:09:29.820Z,74.12
2023-04-02T20:12:33.037Z,74.40
2023-04-02T20:15:36.801Z,73.68
2023-04-02T20:18:39.934Z,74.24
2023-04-02T20:21:42.932Z,74.10
2023-04-02T20:24:45.875Z,73.01
2023-04-02T20:27:49.286Z,73.18
2023-04-02T20:30:52.651Z,73.24
2023-04-02T20:33:59.678Z,73.94
2023-04-02T20:37:02.665Z,75.07
2023-04-02T20:40:05.993Z,74.87
2023-04-02T20:43:09.943Z,73.65
2023-04-02T20:46:13.443Z,74.23
2023-04-02T20:49:15.939Z,74.05
2023-04-02T20:52:19.059Z,75.64
2023-04-02T20:55:21.730Z,76.27
2023-04-02T20:58:24.752Z,75.02
2023-04-02T21:01:29.332Z,75.45
2023-04-02T21:04:32.230Z,75.44
2023-04-02T21:07:34.706Z,74.27
2023-04-02T21:10:39.030Z,74.32
2023-04-02T21:13:44.090Z,74.95
2023-04-02T21:16:47.042Z,74.98
2023-04-02T21:19:49.907Z,75.48
2023-04-02T21:22:52.745Z,75.72
2023-04-02T21:26:04.248Z,75.11
2023-04-02T21:29:07.367Z,75.83
2023-04-02T21:32:20.681Z,76.06
2023-04-02T21:35:24.497Z,75.91
2023-04-02T21:38:27.060Z,75.43
2023-04-02T21:41:32.220Z,74.32
2023-04-02T21:44:34.727Z,74.57
2023-04-02T21:47:37.624Z,74.63
2023-04-02T21:50:40.092Z,74.70
2023-04-02T21:53:43.304Z,75.01
2023-04-02T21:56:46.751Z,74.56
2023-04-02T21:59:49.532Z,75.88
2023-04-02T22:02:52.690Z,76.04
2023-04-02T22:06:17.261Z,75.67
2023-04-02T22:09:22.570Z,76.26
2023-04-02T22:12:25.470Z,74.96
2023-04-02T22:15:27.913Z,75.80
2023-04-02T22:18:31.402Z,75.76
2023-04-02T22:21:34.520Z,76.90
2023-04-02T22:24:37.293Z,76.15
2023-04-02T22:27:39.860Z,78.19
2023-04-02T22:30:42.858Z,79.02
2023-04-02T22:33:46.107Z,80.17
2023-04-02T22:36:48.862Z,80.29
2023-04-02T22:39:51.377Z,80.73
2023-04-02T22:42:54.210Z,80.31
2023-04-02T22:45:57.026Z,81.11
2023-04-02T22:48:59.903Z,80.51
2023-04-02T22:52:05.754Z,79.79
2023-04-02T22:55:09.703Z,78.15
2023-04-02T22:58:12.257Z,78.57
2023-04-02T23:01:16.695Z,77.66
2023-04-02T23:04:19.367Z,77.05
2023-04-02T23:07:22.140Z,77.51
2023-04-02T23:10:24.898Z,77.94
2023-04-02T23:13:33.008Z,76.76
2023-04-02T23:16:35.527Z,76.58
2023-04-02T23:19:40.062Z,77.57
2023-04-02T23:22:42.626Z,76.07
2023-04-02T23:25:45.589Z,76.35
2023-04-02T23:28:48.572Z,76.97
2023-04-02T23:31:51.658Z,75.73
2023-04-02T23:34:56.282Z,76.34
2023-04-02T23:37:59.185Z,76.89
2023-04-02T23:41:01.681Z,77.18
2023-04-02T23:44:04.958Z,77.07
2023-04-02T23:47:09.254Z,77.35
2023-04-02T23:50:12.245Z,77.50
2023-04-02T23:53:14.742Z,77.06
2023-04-02T23:56:18.528Z,76.83
2023-04-02T23:59:21.006Z,77.59
